To NAV CANADA Home Page Login to a new session Search on AWWS site Disclaimer Vers la page française équivalente Tips FAQ What's new on the site To the Forecasts and Observations / NOTAM section To "File a Flight Plan" website Publications and other links Update of the User's profile FIC Telephone Numbers My Weather Data Folder Route Weather Data Regional Weather Data Local Weather Data To the Forecasts and Observations / NOTAM section
Request Generated 06/30/2022 at 10:27:46 UTC . Weather information available at that time is displayed.


Go to a specific product

Save this request - Inactive

METAR/TAF

REGINA INTL/SK    

METAR CYQR 301000Z 32009KT 15SM BKN050 OVC079 12/10 A2990 RMK SC6AC2 SLP129 DENSITY ALT 2000FT=
METAR CYQR 300900Z 31008KT 15SM BKN049 OVC080 12/11 A2989 RMK SC6AC2 SLP124 DENSITY ALT 2100FT=
METAR CYQR 300800Z 33015G22KT 15SM OVC048 14/11 A2988 RMK SC8 SLP119 DENSITY ALT 2300FT=

TAF CYQR 300541Z 3006/0106 32012KT P6SM FEW030 SCT060
FM300800 31010KT P6SM SCT030 BKN060 TEMPO 3008/3015 P6SM VCSH
BKN020 BKN050
FM301500 31015KT P6SM BKN040
FM301800 33015KT P6SM BKN050 TEMPO 3018/3022 P6SM -SHRA PROB30
3018/3022 VRB15G25KT P6SM TSRA BKN050CB
FM302200 34015KT P6SM FEW070
BECMG 0101/0103 01010KT
RMK NXT FCST BY 301200Z


GRAPHICAL FA CLOUDS & WEATHER FORECASTS
To the Product Selector
Graphical FA gfacn32      

GRAPHICAL FA ICING, TURBULENCE & FREEZING LEVEL FORECASTS
To the Product Selector
Graphical FA gfacn32      

FDTEXT Low Level FD. Temperatures are not forecast for the 3,000-foot level.
To the Product Selector
STN YQR - REGINA. SASK for use 3000 6000 9000 12000 18000
FDCN01 CWAO FCST BASED ON 300000 DATA VALID 300600 05-09 3127+08 3034+02 3030-03 2733-15
FDCN02 CWAO FCST BASED ON 300000 DATA VALID 301200 09-18 3218+06 3316+00 3318-05 3221-16
FDCN03 CWAO FCST BASED ON 300000 DATA VALID 010000 18-05 3315+08 2923+01 3128-03 3231-14



Your time UTC time
Weather data provided by Environment Canada and NAV CANADA